Time;durP1;ratioP1;P1;durP2;ratioP2;P2;SDS_P1;SDS_P2;PMS_P1;PMS_P2;Temp;Humidity;BMP_temperature;BMP_pressure;BME280_temperature;BME280_humidity;BME280_pressure;Samples;Min_cycle;Max_cycle;Signal;HPM_P1;HPM_P2
2021/12/12 00:01:12;;;;;;;7.78;6.80;;;7.50;79.30;;;;;;5058750;28;20053;-58
2021/12/12 00:03:46;;;;;;;7.65;6.13;;;7.50;79.30;;;;;;5059457;28;20449;-58
2021/12/12 00:06:19;;;;;;;7.75;5.82;;;7.50;79.30;;;;;;5059031;28;20064;-59
2021/12/12 00:08:49;;;;;;;6.97;6.05;;;7.50;79.30;;;;;;5035938;28;20623;-56
2021/12/12 00:11:17;;;;;;;7.28;6.32;;;7.50;79.30;;;;;;5072397;28;20049;-59
2021/12/12 00:14:08;;;;;;;8.60;6.63;;;7.50;79.30;;;;;;5054959;28;20048;-59
2021/12/12 00:16:34;;;;;;;8.63;7.10;;;7.50;79.30;;;;;;5071646;28;20048;-60
2021/12/12 00:19:00;;;;;;;7.57;6.38;;;7.50;79.30;;;;;;5094436;27;20063;-60
2021/12/12 00:21:28;;;;;;;6.95;6.15;;;7.50;79.30;;;;;;5161455;27;20070;-60
2021/12/12 00:23:55;;;;;;;8.02;6.30;;;7.50;79.30;;;;;;5177116;27;20086;-59
2021/12/12 00:26:21;;;;;;;9.23;6.63;;;7.50;79.40;;;;;;5177194;27;20038;-61
2021/12/12 00:28:48;;;;;;;7.60;6.57;;;7.50;79.30;;;;;;5175479;27;20040;-59
2021/12/12 00:31:16;;;;;;;7.80;6.80;;;7.50;79.30;;;;;;5155887;27;20134;-57
2021/12/12 00:33:47;;;;;;;7.45;6.65;;;7.50;79.30;;;;;;5155647;27;20038;-59
2021/12/12 00:36:17;;;;;;;9.13;6.40;;;7.50;79.50;;;;;;5172424;27;20129;-56
2021/12/12 00:38:46;;;;;;;7.28;5.95;;;7.50;79.30;;;;;;5175151;27;20587;-57
2021/12/12 00:41:13;;;;;;;6.68;5.78;;;7.50;79.30;;;;;;5174675;27;20046;-60
2021/12/12 00:43:47;;;;;;;7.93;6.53;;;7.60;79.40;;;;;;5155852;27;20402;-61
2021/12/12 00:46:14;;;;;;;6.93;6.22;;;7.50;79.30;;;;;;5155499;27;20486;-60
2021/12/12 00:48:44;;;;;;;8.27;6.57;;;7.50;79.30;;;;;;5154959;27;20130;-60
2021/12/12 00:51:13;;;;;;;7.50;6.20;;;7.50;79.30;;;;;;5137604;27;20039;-59
2021/12/12 00:53:41;;;;;;;9.65;6.88;;;7.50;79.30;;;;;;5155156;27;20047;-59
2021/12/12 00:56:07;;;;;;;9.13;6.70;;;7.50;79.30;;;;;;5155470;27;20051;-58
2021/12/12 00:58:33;;;;;;;6.97;6.22;;;7.50;79.30;;;;;;5155304;27;20057;-60
2021/12/12 01:01:05;;;;;;;8.43;7.05;;;7.50;79.30;;;;;;5160362;27;20081;-61
2021/12/12 01:03:39;;;;;;;7.70;6.45;;;7.50;79.30;;;;;;5161994;27;20517;-60
2021/12/12 01:06:06;;;;;;;9.00;6.90;;;7.50;79.30;;;;;;5171658;27;20489;-60
2021/12/12 01:08:33;;;;;;;7.68;6.10;;;7.50;79.30;;;;;;5159009;27;20038;-60
2021/12/12 01:11:01;;;;;;;7.60;6.20;;;7.50;79.30;;;;;;5171415;27;20042;-59
2021/12/12 01:13:27;;;;;;;7.85;6.32;;;7.50;79.30;;;;;;5173699;27;20084;-60
2021/12/12 01:16:00;;;;;;;7.38;6.10;;;7.50;79.30;;;;;;5136391;27;20054;-60
2021/12/12 01:18:30;;;;;;;7.40;6.43;;;7.50;79.30;;;;;;5135912;27;20056;-60
2021/12/12 01:21:00;;;;;;;7.38;5.85;;;7.50;79.30;;;;;;5154272;27;20053;-58
2021/12/12 01:23:31;;;;;;;6.95;6.13;;;7.50;79.30;;;;;;5140288;27;20057;-60
2021/12/12 01:25:58;;;;;;;7.68;6.32;;;7.50;79.30;;;;;;5167350;27;20035;-61
2021/12/12 01:28:29;;;;;;;8.63;6.53;;;7.50;79.30;;;;;;5172067;27;20038;-61
2021/12/12 01:30:59;;;;;;;8.57;6.90;;;7.50;79.30;;;;;;5175144;27;20097;-61
2021/12/12 01:33:36;;;;;;;7.88;6.00;;;7.50;79.30;;;;;;5173581;27;20118;-61
2021/12/12 01:36:06;;;;;;;7.35;6.47;;;7.50;79.30;;;;;;5174666;27;20053;-60
2021/12/12 01:38:53;;;;;;;6.68;5.95;;;7.50;79.30;;;;;;5155745;27;20094;-60
2021/12/12 01:41:36;;;;;;;8.05;6.47;;;7.50;79.30;;;;;;5153610;27;20148;-60
2021/12/12 01:44:16;;;;;;;8.15;6.60;;;7.50;79.20;;;;;;5136830;27;20061;-58
2021/12/12 01:47:07;;;;;;;7.95;6.32;;;7.50;79.30;;;;;;5171338;27;20042;-60
2021/12/12 01:49:35;;;;;;;8.30;6.07;;;7.50;79.30;;;;;;5172884;27;20044;-62
2021/12/12 01:52:05;;;;;;;8.27;6.63;;;7.50;79.30;;;;;;5174279;27;20108;-61
2021/12/12 01:54:43;;;;;;;7.38;6.10;;;7.50;79.30;;;;;;5173473;27;20043;-59
2021/12/12 01:57:16;;;;;;;8.15;6.13;;;7.50;79.30;;;;;;5169960;27;20042;-58
2021/12/12 01:59:43;;;;;;;7.40;6.32;;;7.50;79.30;;;;;;5174753;27;20034;-58
2021/12/12 02:02:22;;;;;;;7.60;6.38;;;7.50;79.30;;;;;;5171646;27;20489;-56
2021/12/12 02:04:56;;;;;;;7.43;6.25;;;7.50;79.30;;;;;;5163560;27;20046;-59
2021/12/12 02:07:28;;;;;;;7.78;6.95;;;7.50;79.30;;;;;;5156594;27;20054;-56
2021/12/12 02:09:58;;;;;;;7.55;6.32;;;7.50;79.30;;;;;;5157118;27;20046;-61
2021/12/12 02:12:24;;;;;;;7.50;6.72;;;7.50;79.30;;;;;;5154148;27;20530;-58
2021/12/12 02:14:52;;;;;;;7.82;6.72;;;7.60;79.40;;;;;;5134773;27;20062;-61
2021/12/12 02:17:27;;;;;;;7.25;6.10;;;7.50;79.30;;;;;;5154149;27;20512;-59
2021/12/12 02:20:14;;;;;;;8.20;6.75;;;7.50;79.30;;;;;;5153917;27;20042;-59
2021/12/12 02:36:20;;;;;;;7.78;6.50;;;7.50;79.30;;;;;;5154669;27;20474;-59
2021/12/12 02:38:50;;;;;;;7.40;6.05;;;7.50;79.30;;;;;;5163543;27;20073;-59
2021/12/12 02:41:17;;;;;;;9.85;6.47;;;7.50;79.40;;;;;;5173760;27;20049;-58
2021/12/12 02:43:54;;;;;;;7.15;6.10;;;7.50;79.30;;;;;;5174028;27;20121;-59
2021/12/12 02:46:27;;;;;;;7.25;6.28;;;7.50;79.40;;;;;;5170778;27;20047;-57
2021/12/12 02:48:58;;;;;;;7.95;6.75;;;7.50;80.00;;;;;;5153426;27;20526;-59
2021/12/12 02:51:24;;;;;;;8.32;6.38;;;7.50;79.30;;;;;;5153743;27;21031;-58
2021/12/12 02:53:57;;;;;;;6.57;5.88;;;7.50;79.30;;;;;;5154406;27;20077;-58
2021/12/12 02:56:33;;;;;;;7.78;6.30;;;7.50;79.30;;;;;;5152861;27;20053;-58
2021/12/12 02:58:59;;;;;;;;;;;7.50;79.30;;;;;;5154740;27;20471;-58
2021/12/12 03:01:33;;;;;;;6.75;5.82;;;7.50;79.20;;;;;;5137463;27;19926;-58
2021/12/12 03:03:59;;;;;;;8.30;6.03;;;7.60;79.40;;;;;;5165952;27;20074;-58
2021/12/12 03:06:28;;;;;;;6.95;6.00;;;7.50;79.40;;;;;;5153549;27;20043;-58
2021/12/12 03:09:00;;;;;;;8.07;6.07;;;7.50;79.40;;;;;;5160537;27;20260;-59
2021/12/12 03:11:27;;;;;;;8.13;6.50;;;7.50;79.40;;;;;;5172038;27;20121;-58
2021/12/12 03:13:54;;;;;;;7.70;6.60;;;7.50;80.00;;;;;;5162192;27;20054;-58
2021/12/12 03:16:21;;;;;;;6.78;6.13;;;7.50;79.40;;;;;;5174261;27;20043;-58
2021/12/12 03:18:47;;;;;;;7.55;6.70;;;7.50;79.40;;;;;;5158145;27;20051;-59
2021/12/12 03:21:20;;;;;;;7.47;6.32;;;7.50;79.30;;;;;;5153857;27;20038;-58
2021/12/12 03:23:53;;;;;;;7.60;5.63;;;7.60;79.40;;;;;;5157683;27;20061;-57
2021/12/12 03:26:20;;;;;;;7.82;5.65;;;7.50;79.40;;;;;;5157249;27;20043;-57
2021/12/12 03:28:49;;;;;;;6.85;6.05;;;7.50;79.40;;;;;;5156893;27;20038;-58
2021/12/12 03:31:22;;;;;;;7.78;6.32;;;7.60;79.40;;;;;;5157209;27;20039;-59
2021/12/12 03:33:49;;;;;;;7.03;6.05;;;7.50;79.30;;;;;;5156945;27;20046;-60
2021/12/12 03:36:15;;;;;;;8.65;5.70;;;7.50;79.30;;;;;;5167950;27;20046;-57
2021/12/12 03:38:50;;;;;;;7.13;6.00;;;7.60;79.40;;;;;;5168358;27;20043;-60
2021/12/12 03:41:19;;;;;;;7.85;6.50;;;7.60;79.40;;;;;;5157846;27;20086;-58
2021/12/12 03:43:51;;;;;;;6.85;6.03;;;7.60;79.40;;;;;;5156382;27;20035;-59
2021/12/12 03:46:16;;;;;;;6.38;5.50;;;7.50;79.40;;;;;;5157011;27;20133;-59
2021/12/12 03:48:44;;;;;;;7.07;6.10;;;7.60;79.40;;;;;;5138438;27;20057;-58
2021/12/12 03:51:14;;;;;;;6.82;5.63;;;7.50;79.30;;;;;;5158131;27;20118;-61
2021/12/12 03:53:40;;;;;;;7.82;6.05;;;7.50;79.30;;;;;;5156383;27;20456;-58
2021/12/12 03:56:08;;;;;;;6.95;6.07;;;7.60;79.40;;;;;;5156683;27;20466;-58
2021/12/12 03:58:34;;;;;;;6.13;5.40;;;7.60;79.40;;;;;;5143856;27;20042;-60
2021/12/12 04:01:18;;;;;;;7.38;5.30;;;7.50;79.30;;;;;;5175098;27;20045;-58
2021/12/12 04:03:45;;;;;;;7.90;5.43;;;7.50;79.40;;;;;;5173347;27;20035;-58
2021/12/12 04:06:15;;;;;;;5.88;5.05;;;7.60;79.40;;;;;;5168787;27;20038;-59
2021/12/12 04:08:44;;;;;;;6.50;5.40;;;7.50;79.30;;;;;;5177768;27;20181;-59
2021/12/12 04:11:20;;;;;;;6.28;5.40;;;7.60;79.40;;;;;;5157475;27;20039;-59
2021/12/12 04:13:48;;;;;;;6.15;5.55;;;7.50;79.30;;;;;;5156673;27;20049;-59
2021/12/12 04:16:15;;;;;;;5.50;5.00;;;7.60;79.40;;;;;;5156264;27;20035;-58
2021/12/12 04:18:41;;;;;;;6.30;5.55;;;7.50;79.30;;;;;;5156451;27;20137;-59
2021/12/12 04:21:08;;;;;;;6.20;5.35;;;7.60;79.40;;;;;;5156957;27;20053;-59
2021/12/12 04:23:34;;;;;;;6.13;4.95;;;7.60;79.40;;;;;;5177204;27;20038;-59
2021/12/12 04:26:17;;;;;;;7.63;5.53;;;7.60;79.40;;;;;;5157635;27;20074;-58
2021/12/12 04:28:44;;;;;;;7.45;5.38;;;7.60;79.40;;;;;;5156373;27;20099;-58
2021/12/12 04:31:10;;;;;;;6.07;5.15;;;7.60;79.40;;;;;;5120079;27;20095;-59
2021/12/12 04:33:36;;;;;;;6.20;5.20;;;7.60;79.40;;;;;;5156365;27;20436;-59
2021/12/12 04:36:03;;;;;;;6.53;5.03;;;7.60;79.40;;;;;;5155701;27;20035;-59
2021/12/12 04:38:28;;;;;;;5.85;5.00;;;7.60;79.40;;;;;;5162267;27;20050;-61
2021/12/12 04:40:54;;;;;;;6.07;4.93;;;7.60;79.40;;;;;;5176198;27;20034;-60
2021/12/12 04:43:20;;;;;;;6.47;5.10;;;7.60;79.40;;;;;;5175057;27;20038;-59
2021/12/12 04:46:04;;;;;;;5.80;4.97;;;7.60;79.40;;;;;;5176737;27;20164;-59
2021/12/12 04:51:39;;;;;;;5.43;4.63;;;7.60;79.40;;;;;;5172430;27;20042;-59
2021/12/12 04:54:27;;;;;;;5.35;4.57;;;7.60;79.40;;;;;;5156460;27;20041;-60
2021/12/12 04:57:17;;;;;;;5.50;4.85;;;7.60;79.40;;;;;;5155408;27;20524;-60
2021/12/12 04:59:53;;;;;;;4.65;4.20;;;7.60;79.40;;;;;;5172795;27;20122;-60
2021/12/12 05:02:34;;;;;;;5.97;4.10;;;7.60;79.40;;;;;;5176194;27;20046;-59
2021/12/12 05:05:16;;;;;;;5.18;4.68;;;7.60;79.40;;;;;;5158393;27;20167;-59
2021/12/12 05:07:47;;;;;;;5.28;4.68;;;7.60;80.00;;;;;;5157031;27;20121;-57
2021/12/12 05:10:17;;;;;;;5.00;4.50;;;7.60;79.40;;;;;;5155195;27;20053;-59
2021/12/12 05:12:53;;;;;;;5.22;4.03;;;7.60;79.40;;;;;;5155380;27;20250;-60
2021/12/12 05:15:29;;;;;;;5.63;5.05;;;7.60;79.40;;;;;;5156379;27;20127;-59
2021/12/12 05:17:59;;;;;;;4.50;4.03;;;7.60;79.40;;;;;;5154996;27;20043;-60
2021/12/12 05:20:30;;;;;;;4.90;4.40;;;7.60;79.40;;;;;;5154568;27;20046;-57
2021/12/12 05:23:01;;;;;;;4.40;4.00;;;7.60;80.00;;;;;;5161688;27;20109;-57
2021/12/12 05:25:34;;;;;;;5.20;4.10;;;7.60;79.40;;;;;;5174031;27;20393;-58
2021/12/12 05:28:02;;;;;;;5.32;4.35;;;7.60;79.40;;;;;;5175324;27;20470;-57
2021/12/12 05:30:32;;;;;;;4.88;4.13;;;7.60;79.40;;;;;;5175441;27;20042;-58
2021/12/12 05:33:00;;;;;;;4.30;3.63;;;7.60;79.40;;;;;;5173058;27;20053;-58
2021/12/12 05:35:30;;;;;;;5.05;4.40;;;7.60;79.40;;;;;;5168542;27;20122;-58
2021/12/12 05:37:58;;;;;;;5.18;4.18;;;7.60;79.40;;;;;;5138652;27;20049;-57
2021/12/12 05:40:29;;;;;;;5.18;3.92;;;7.60;79.40;;;;;;5175562;27;20061;-58
2021/12/12 05:42:59;;;;;;;5.18;4.15;;;7.60;79.40;;;;;;5168436;27;20406;-58
2021/12/12 05:45:26;;;;;;;4.45;3.67;;;7.60;79.40;;;;;;5134876;27;20085;-58
2021/12/12 05:47:52;;;;;;;4.15;3.75;;;7.60;80.10;;;;;;5155669;27;20039;-57
2021/12/12 05:50:19;;;;;;;5.30;4.40;;;7.60;79.40;;;;;;5154461;27;20049;-58
2021/12/12 05:52:46;;;;;;;4.95;3.80;;;7.60;79.40;;;;;;5153486;27;20102;-59
2021/12/12 05:55:14;;;;;;;4.70;4.03;;;7.60;79.40;;;;;;5158057;27;20095;-58
2021/12/12 05:57:43;;;;;;;3.78;3.38;;;7.60;79.40;;;;;;5153948;27;20038;-58
2021/12/12 06:00:15;;;;;;;4.30;3.80;;;7.60;79.40;;;;;;5153915;27;20552;-58
2021/12/12 06:02:41;;;;;;;3.85;3.50;;;7.60;79.40;;;;;;5155168;27;20047;-58
2021/12/12 06:05:08;;;;;;;4.00;3.55;;;7.60;79.40;;;;;;5165765;27;20039;-59
2021/12/12 06:07:35;;;;;;;3.80;3.40;;;7.60;79.40;;;;;;5153933;27;20043;-57
2021/12/12 06:10:05;;;;;;;4.10;3.58;;;7.50;79.30;;;;;;5166416;27;20546;-60
2021/12/12 06:12:34;;;;;;;5.38;3.72;;;7.60;79.40;;;;;;5175145;27;20034;-59
2021/12/12 06:15:01;;;;;;;4.72;3.88;;;7.60;79.40;;;;;;5175044;27;20328;-58
2021/12/12 06:17:27;;;;;;;3.80;3.45;;;7.60;79.40;;;;;;5175168;27;20053;-59
2021/12/12 06:19:55;;;;;;;3.75;3.40;;;7.60;79.40;;;;;;5175054;27;20053;-59
2021/12/12 06:22:21;;;;;;;4.32;3.58;;;7.60;79.40;;;;;;5160972;27;20050;-58
2021/12/12 06:24:48;;;;;;;3.88;3.47;;;7.60;79.40;;;;;;5155756;27;20037;-58
2021/12/12 06:27:17;;;;;;;3.85;3.45;;;7.60;79.40;;;;;;5164761;27;20043;-59
2021/12/12 06:29:48;;;;;;;3.90;3.53;;;7.60;79.40;;;;;;5155397;27;20063;-60
2021/12/12 06:32:14;;;;;;;3.80;3.30;;;7.60;79.40;;;;;;5154349;27;20050;-57
2021/12/12 06:34:41;;;;;;;3.67;3.15;;;7.60;80.10;;;;;;5153659;27;20041;-60
2021/12/12 06:37:06;;;;;;;4.15;3.20;;;7.60;79.40;;;;;;5153465;27;20130;-58
2021/12/12 06:39:33;;;;;;;4.00;3.25;;;7.60;79.40;;;;;;5154400;27;20458;-59
2021/12/12 06:41:59;;;;;;;3.67;2.95;;;7.60;79.40;;;;;;5134893;27;20423;-58
2021/12/12 06:44:25;;;;;;;3.67;3.25;;;7.60;79.50;;;;;;5153931;27;20043;-60
2021/12/12 06:46:53;;;;;;;3.97;3.20;;;7.70;79.50;;;;;;5153692;27;20035;-57
2021/12/12 06:49:20;;;;;;;3.80;3.35;;;7.60;79.50;;;;;;5153589;27;20114;-60
2021/12/12 06:51:51;;;;;;;3.08;2.63;;;7.60;79.50;;;;;;5154593;27;20039;-59
2021/12/12 06:54:20;;;;;;;3.40;3.10;;;7.60;79.50;;;;;;5135181;27;20043;-59
2021/12/12 06:56:48;;;;;;;3.72;3.10;;;7.60;79.60;;;;;;5142196;27;20049;-58
2021/12/12 06:59:14;;;;;;;3.78;3.10;;;7.60;79.60;;;;;;5176977;27;20046;-59
2021/12/12 07:01:41;;;;;;;3.20;2.90;;;7.70;79.10;;;;;;5169388;27;20087;-59
2021/12/12 07:04:09;;;;;;;3.17;2.88;;;7.60;79.60;;;;;;5157644;27;20497;-60
2021/12/12 07:06:36;;;;;;;3.42;3.13;;;7.70;79.60;;;;;;5171241;27;20118;-60
2021/12/12 07:09:07;;;;;;;3.47;3.15;;;7.60;79.60;;;;;;5145544;27;20047;-57
2021/12/12 07:11:36;;;;;;;4.90;3.30;;;7.60;79.60;;;;;;5158479;27;20097;-58
2021/12/12 07:14:02;;;;;;;3.42;3.13;;;7.60;79.60;;;;;;5157408;27;20130;-61
2021/12/12 07:16:28;;;;;;;3.70;2.83;;;7.60;79.60;;;;;;5157726;27;20037;-58
2021/12/12 07:18:55;;;;;;;3.78;3.10;;;7.70;79.70;;;;;;5157148;27;20090;-58
2021/12/12 07:21:22;;;;;;;2.95;2.60;;;7.60;79.60;;;;;;5157966;27;20052;-60
2021/12/12 07:23:49;;;;;;;2.97;2.67;;;7.60;79.60;;;;;;5171149;27;20038;-59
2021/12/12 07:26:17;;;;;;;3.13;2.83;;;7.60;79.60;;;;;;5157053;27;20046;-58
2021/12/12 07:28:47;;;;;;;3.22;2.90;;;7.60;79.60;;;;;;5157544;27;20071;-58
2021/12/12 07:31:16;;;;;;;3.85;3.17;;;7.70;79.70;;;;;;5176124;27;20046;-58
2021/12/12 07:33:44;;;;;;;3.05;2.75;;;7.60;79.60;;;;;;5176076;27;20133;-57
2021/12/12 07:36:11;;;;;;;3.55;2.63;;;7.70;79.70;;;;;;5158847;27;20046;-57
2021/12/12 07:38:41;;;;;;;2.70;2.38;;;7.60;79.60;;;;;;5177602;27;20038;-57
2021/12/12 07:41:07;;;;;;;3.00;2.60;;;7.60;79.60;;;;;;5177752;27;20341;-57
2021/12/12 07:43:34;;;;;;;3.10;2.80;;;7.60;79.60;;;;;;5175103;27;20035;-57
2021/12/12 07:46:01;;;;;;;3.33;3.03;;;7.70;79.70;;;;;;5177639;27;20042;-57
2021/12/12 07:48:27;;;;;;;3.20;2.70;;;7.70;79.70;;;;;;5177106;27;20049;-57
2021/12/12 07:50:54;;;;;;;2.97;2.67;;;7.60;79.60;;;;;;5177453;27;20038;-57
2021/12/12 07:53:22;;;;;;;2.58;2.35;;;7.70;79.70;;;;;;5168709;27;20053;-57
2021/12/12 07:55:48;;;;;;;2.85;2.55;;;7.70;79.70;;;;;;5157165;27;20497;-56
2021/12/12 07:58:17;;;;;;;3.00;2.70;;;7.70;79.70;;;;;;5148327;27;20046;-57
2021/12/12 08:00:45;;;;;;;3.00;2.70;;;7.70;79.70;;;;;;5176117;27;20453;-57
2021/12/12 08:03:13;;;;;;;2.85;2.53;;;7.70;79.80;;;;;;5173266;27;20034;-57
2021/12/12 08:05:40;;;;;;;2.63;2.42;;;7.70;79.70;;;;;;5167379;27;20049;-57
2021/12/12 08:08:09;;;;;;;3.17;2.80;;;7.70;79.70;;;;;;5176434;27;20046;-56
2021/12/12 08:10:36;;;;;;;2.72;2.53;;;7.70;79.70;;;;;;5158913;27;20049;-57
2021/12/12 08:13:03;;;;;;;3.20;2.88;;;7.70;79.70;;;;;;5156247;27;20072;-57
2021/12/12 08:15:29;;;;;;;3.35;2.83;;;7.70;79.70;;;;;;5155838;27;20046;-57
2021/12/12 08:18:01;;;;;;;2.90;2.30;;;7.70;79.80;;;;;;5156078;27;20474;-57
2021/12/12 08:20:30;;;;;;;2.80;2.53;;;7.70;79.80;;;;;;5156463;27;20047;-58
2021/12/12 08:22:57;;;;;;;2.85;2.60;;;7.70;79.80;;;;;;5157183;27;20138;-58
2021/12/12 08:25:25;;;;;;;3.00;2.60;;;7.70;79.80;;;;;;5177606;27;20038;-56
2021/12/12 08:27:53;;;;;;;3.28;2.60;;;7.70;79.80;;;;;;5177267;27;20378;-57
2021/12/12 08:30:19;;;;;;;3.05;2.70;;;7.70;79.80;;;;;;5177411;27;20132;-55
2021/12/12 08:32:48;;;;;;;3.10;2.75;;;7.70;79.70;;;;;;5175707;27;20492;-56
2021/12/12 08:35:16;;;;;;;3.10;2.67;;;7.70;79.80;;;;;;5176761;27;20050;-56
2021/12/12 08:37:44;;;;;;;3.30;2.90;;;7.70;79.80;;;;;;5176996;27;20042;-57
2021/12/12 08:40:14;;;;;;;2.80;2.53;;;7.70;79.80;;;;;;5176811;27;20039;-57
2021/12/12 08:42:40;;;;;;;3.00;2.55;;;7.70;79.70;;;;;;5175020;27;20053;-56
2021/12/12 08:45:09;;;;;;;3.17;2.42;;;7.70;79.70;;;;;;5176821;27;20082;-57
2021/12/12 08:47:39;;;;;;;3.03;2.63;;;7.70;79.70;;;;;;5156751;27;20050;-57
2021/12/12 08:50:07;;;;;;;2.92;2.70;;;7.70;79.70;;;;;;5176463;27;20034;-56
2021/12/12 08:52:38;;;;;;;2.88;2.58;;;7.70;79.70;;;;;;5176588;27;20053;-57
2021/12/12 08:55:15;;;;;;;3.05;2.75;;;7.70;79.80;;;;;;5174653;27;20049;-57
2021/12/12 08:57:58;;;;;;;3.00;2.70;;;7.70;79.80;;;;;;5158390;27;20091;-57
2021/12/12 09:00:33;;;;;;;2.65;2.45;;;7.70;79.80;;;;;;5176668;27;20074;-57
2021/12/12 09:02:59;;;;;;;2.60;2.40;;;7.70;79.80;;;;;;5176177;27;20038;-57
2021/12/12 09:05:32;;;;;;;3.28;2.72;;;7.70;79.80;;;;;;5174537;27;20034;-57
2021/12/12 09:08:04;;;;;;;3.13;2.67;;;7.70;79.80;;;;;;5176452;27;20048;-57
2021/12/12 09:10:58;;;;;;;3.50;3.13;;;7.70;79.80;;;;;;5176421;27;20053;-57
2021/12/12 09:13:29;;;;;;;3.45;2.90;;;7.70;79.70;;;;;;5176686;27;20050;-57
2021/12/12 09:16:21;;;;;;;3.30;2.88;;;7.70;79.80;;;;;;5174535;27;20545;-57
2021/12/12 09:19:03;;;;;;;3.75;2.65;;;7.70;79.80;;;;;;5175612;27;20489;-57
2021/12/12 09:21:47;;;;;;;4.00;3.20;;;7.70;79.80;;;;;;5176277;27;20038;-57
2021/12/12 09:24:24;;;;;;;3.92;2.97;;;7.70;79.80;;;;;;5157581;27;20054;-59
2021/12/12 09:26:54;;;;;;;2.75;2.47;;;7.70;79.80;;;;;;5172107;27;20482;-57
2021/12/12 09:29:45;;;;;;;2.50;2.30;;;7.70;79.80;;;;;;5164403;27;20136;-56
2021/12/12 09:32:21;;;;;;;3.15;2.70;;;7.70;79.90;;;;;;5174965;27;20199;-57
2021/12/12 09:34:55;;;;;;;;;;;7.80;79.90;;;;;;5156003;27;20039;-57
2021/12/12 09:37:27;;;;;;;2.85;2.53;;;7.70;79.80;;;;;;5135759;27;19919;-57
2021/12/12 09:40:00;;;;;;;3.00;2.70;;;7.70;79.90;;;;;;5155033;27;20045;-57
2021/12/12 09:42:53;;;;;;;3.80;2.90;;;7.70;79.90;;;;;;5142991;27;20485;-56
2021/12/12 09:45:37;;;;;;;2.88;2.58;;;7.70;79.90;;;;;;5167993;27;20042;-55
2021/12/12 09:51:43;;;;;;;;;;;7.70;79.90;;;;;;5050229;28;20517;-58
2021/12/12 09:54:20;;;;;;;3.72;2.97;;;7.70;79.90;;;;;;5050257;28;19986;-57
2021/12/12 09:57:04;;;;;;;2.83;2.60;;;7.70;79.90;;;;;;5050439;28;20045;-58
2021/12/12 09:59:32;;;;;;;4.65;2.75;;;7.70;79.90;;;;;;5056149;28;20472;-56
2021/12/12 10:02:22;;;;;;;3.60;2.90;;;7.70;79.90;;;;;;5070128;28;20044;-57
2021/12/12 10:05:20;;;;;;;3.83;2.90;;;7.70;79.90;;;;;;5070138;28;20345;-57
2021/12/12 10:08:09;;;;;;;3.03;2.70;;;7.70;80.00;;;;;;4990034;28;20133;-57
2021/12/12 10:10:55;;;;;;;3.88;2.90;;;7.70;79.90;;;;;;4990796;28;20168;-57
2021/12/12 10:13:43;;;;;;;3.38;2.92;;;7.70;80.00;;;;;;4990541;28;20495;-58
2021/12/12 10:16:21;;;;;;;3.53;3.00;;;7.70;80.60;;;;;;4990736;28;20129;-57
2021/12/12 10:18:47;;;;;;;4.00;3.05;;;7.70;80.00;;;;;;4957394;28;20089;-55
2021/12/12 10:21:46;;;;;;;3.42;2.85;;;7.70;80.00;;;;;;4988822;28;20495;-57
2021/12/12 10:24:34;;;;;;;3.75;3.17;;;7.80;80.00;;;;;;4991276;28;20059;-56
2021/12/12 10:27:09;;;;;;;4.07;3.42;;;7.80;80.00;;;;;;5031816;28;20495;-57
2021/12/12 10:30:00;;;;;;;4.10;2.97;;;7.70;80.00;;;;;;5048529;28;20210;-57
2021/12/12 10:32:32;;;;;;;3.20;2.72;;;7.70;80.00;;;;;;5048797;28;20183;-57
2021/12/12 10:35:04;;;;;;;3.55;3.00;;;7.70;80.00;;;;;;5049111;28;20044;-57
2021/12/12 10:37:41;;;;;;;4.53;3.00;;;7.70;80.00;;;;;;5063630;28;20092;-56
2021/12/12 10:40:29;;;;;;;3.58;2.90;;;7.80;80.00;;;;;;5048670;28;20412;-57
2021/12/12 10:42:59;;;;;;;4.05;3.17;;;7.80;80.00;;;;;;5064539;28;20058;-57
2021/12/12 10:45:39;;;;;;;4.55;3.30;;;7.80;80.10;;;;;;5107258;28;20043;-57
2021/12/12 10:48:14;;;;;;;3.30;2.88;;;7.80;80.70;;;;;;5108350;28;20134;-57
2021/12/12 10:51:12;;;;;;;3.17;2.88;;;7.80;80.00;;;;;;5107222;28;20062;-57
2021/12/12 10:53:46;;;;;;;3.10;2.70;;;7.80;80.00;;;;;;5122555;28;20063;-57
2021/12/12 10:56:23;;;;;;;4.18;2.67;;;7.80;80.00;;;;;;5144172;27;20214;-57
2021/12/12 10:58:54;;;;;;;3.50;3.00;;;7.80;80.00;;;;;;5129714;27;20046;-57
2021/12/12 11:01:30;;;;;;;3.08;2.78;;;7.80;80.10;;;;;;5127545;28;20514;-57
2021/12/12 11:04:22;;;;;;;3.15;2.85;;;7.80;80.10;;;;;;5125189;27;20047;-58
2021/12/12 11:07:03;;;;;;;3.30;3.00;;;7.80;80.00;;;;;;5129145;27;20047;-57
2021/12/12 11:09:35;;;;;;;3.20;2.90;;;7.80;80.10;;;;;;5138537;27;20399;-58
2021/12/12 11:12:24;;;;;;;3.40;2.88;;;7.80;80.10;;;;;;5128118;27;20051;-58
2021/12/12 11:15:05;;;;;;;3.83;3.10;;;7.80;80.70;;;;;;5127557;28;20087;-57
2021/12/12 11:17:44;;;;;;;3.95;3.15;;;7.80;80.10;;;;;;5128512;28;20047;-57
2021/12/12 11:20:21;;;;;;;2.90;2.55;;;7.80;80.10;;;;;;5127243;28;20058;-57
2021/12/12 11:23:02;;;;;;;3.13;2.65;;;7.80;80.10;;;;;;5133887;27;20139;-58
2021/12/12 11:25:39;;;;;;;3.22;2.72;;;7.80;80.20;;;;;;5148152;27;20716;-58
2021/12/12 11:28:16;;;;;;;2.50;2.22;;;7.80;80.10;;;;;;5135787;27;20047;-58
2021/12/12 11:31:08;;;;;;;2.97;2.60;;;7.80;80.10;;;;;;5128742;27;20054;-58
2021/12/12 11:33:35;;;;;;;3.38;2.95;;;7.80;80.10;;;;;;5048744;28;20842;-58
2021/12/12 11:36:03;;;;;;;3.38;2.42;;;7.80;80.10;;;;;;5065083;28;20056;-58
2021/12/12 11:38:43;;;;;;;3.75;2.97;;;7.80;80.10;;;;;;5047953;28;20061;-60
2021/12/12 11:41:20;;;;;;;2.88;2.55;;;7.80;80.10;;;;;;5064902;28;20049;-58
2021/12/12 11:44:08;;;;;;;2.72;2.50;;;7.80;80.10;;;;;;5067714;28;20091;-57
2021/12/12 11:46:50;;;;;;;3.20;2.78;;;7.80;80.10;;;;;;5068908;28;20566;-58
2021/12/12 11:49:27;;;;;;;2.80;2.58;;;7.80;80.10;;;;;;5068721;28;20052;-57
2021/12/12 11:52:01;;;;;;;2.58;2.33;;;7.80;80.10;;;;;;5068141;28;20083;-58
2021/12/12 11:55:06;;;;;;;2.58;2.33;;;7.80;80.10;;;;;;5068442;28;20063;-58
2021/12/12 11:57:52;;;;;;;2.60;2.40;;;7.80;80.00;;;;;;4988694;28;20065;-58
2021/12/12 12:00:23;;;;;;;2.67;2.30;;;7.80;80.10;;;;;;4989174;28;20070;-58
2021/12/12 12:03:07;;;;;;;3.03;2.35;;;7.80;80.10;;;;;;4989637;28;20477;-58
2021/12/12 12:05:42;;;;;;;3.17;2.58;;;7.80;80.10;;;;;;4989295;28;20050;-57
2021/12/12 12:08:13;;;;;;;2.45;2.20;;;7.90;80.20;;;;;;4972852;28;20062;-58
2021/12/12 12:11:06;;;;;;;3.22;2.67;;;7.80;80.10;;;;;;5030662;28;20059;-58
2021/12/12 12:13:40;;;;;;;2.67;2.40;;;7.80;80.10;;;;;;5068111;28;20109;-57
2021/12/12 12:16:28;;;;;;;2.67;2.35;;;7.80;80.10;;;;;;5068228;28;20123;-57
2021/12/12 12:19:24;;;;;;;3.03;2.72;;;7.80;80.00;;;;;;5067016;28;20556;-58
2021/12/12 12:22:02;;;;;;;2.70;2.28;;;7.80;80.00;;;;;;5051478;28;20043;-57
2021/12/12 12:24:41;;;;;;;2.65;2.20;;;7.80;80.00;;;;;;5068111;28;20084;-58
2021/12/12 12:27:13;;;;;;;2.90;2.42;;;7.80;80.00;;;;;;5067715;28;20448;-58
2021/12/12 12:30:00;;;;;;;2.78;2.40;;;7.90;80.10;;;;;;5067355;28;20108;-57
2021/12/12 12:32:35;;;;;;;2.35;1.88;;;7.80;80.00;;;;;;5143443;27;20090;-57
2021/12/12 12:35:19;;;;;;;3.85;2.45;;;7.90;80.10;;;;;;5152231;27;20035;-57
2021/12/12 12:38:04;;;;;;;3.08;2.35;;;7.90;80.10;;;;;;5152252;27;20043;-57
2021/12/12 12:40:54;;;;;;;2.70;2.30;;;7.90;80.10;;;;;;5151910;27;20131;-57
2021/12/12 12:43:54;;;;;;;2.38;2.17;;;7.90;80.00;;;;;;5151567;27;20046;-57
2021/12/12 12:46:57;;;;;;;2.58;2.38;;;7.90;79.90;;;;;;5050196;28;20167;-57
2021/12/12 12:49:44;;;;;;;2.78;2.33;;;7.90;79.90;;;;;;5050750;28;20053;-58
2021/12/12 12:52:22;;;;;;;2.90;2.20;;;7.90;79.90;;;;;;5059587;28;20583;-57
2021/12/12 12:55:26;;;;;;;2.47;2.13;;;7.90;80.00;;;;;;5058275;28;20095;-57
2021/12/12 12:57:55;;;;;;;2.25;2.05;;;7.90;79.90;;;;;;5047911;28;20127;-57
2021/12/12 13:00:24;;;;;;;2.65;2.20;;;7.90;79.90;;;;;;5046650;28;20128;-58
2021/12/12 13:03:24;;;;;;;2.35;1.90;;;7.90;79.90;;;;;;5063823;28;20075;-57
2021/12/12 13:06:26;;;;;;;2.78;2.25;;;7.90;79.90;;;;;;5066326;28;20424;-56
2021/12/12 13:09:11;;;;;;;2.58;2.22;;;8.00;79.90;;;;;;5029483;28;20528;-57
2021/12/12 13:11:59;;;;;;;2.45;2.20;;;7.90;79.90;;;;;;5027653;28;20162;-56
2021/12/12 13:14:43;;;;;;;2.47;2.00;;;7.90;79.80;;;;;;5014695;28;20083;-58
2021/12/12 13:17:21;;;;;;;2.42;2.00;;;7.90;79.90;;;;;;5025641;28;20061;-57
2021/12/12 13:19:55;;;;;;;2.30;1.92;;;7.90;79.90;;;;;;5009638;28;20581;-57
2021/12/12 13:22:41;;;;;;;2.75;2.10;;;7.90;79.90;;;;;;5067114;28;20063;-57
2021/12/12 13:25:20;;;;;;;2.83;2.33;;;7.90;79.90;;;;;;5069517;28;20060;-57
2021/12/12 13:28:07;;;;;;;2.40;2.20;;;7.90;79.80;;;;;;5086667;28;20457;-58
2021/12/12 13:30:42;;;;;;;2.15;1.95;;;7.90;79.80;;;;;;5086018;28;20545;-58
2021/12/12 13:33:11;;;;;;;2.55;2.15;;;7.90;79.80;;;;;;5085369;28;20078;-57
2021/12/12 13:36:01;;;;;;;2.03;1.83;;;7.90;79.80;;;;;;5086364;28;20056;-59
2021/12/12 13:38:48;;;;;;;2.58;1.95;;;7.90;79.80;;;;;;5086279;28;20094;-57
2021/12/12 13:41:32;;;;;;;2.00;1.80;;;7.90;79.80;;;;;;5086358;28;20039;-56
2021/12/12 13:44:11;;;;;;;2.72;2.38;;;7.90;79.80;;;;;;5068323;28;20056;-58
2021/12/12 13:46:49;;;;;;;2.03;1.83;;;7.90;79.80;;;;;;5069101;28;20047;-56
2021/12/12 13:49:24;;;;;;;2.10;1.85;;;7.90;79.80;;;;;;5085486;28;20074;-58
2021/12/12 13:51:54;;;;;;;;;;;8.00;79.80;;;;;;5116271;27;20059;-57